SDM115 UUEE-UMMS
Flight info
| Callsign | SDM115 |
|---|---|
| Flight time | N/A |
| Altitude | 31000 |
| Route | LIDRI3H/24C LIDR3H LIDRI T781 REPNU N858 VEPIS Y219 LAPKI N869 AGNEF DCT PENAL PENA2E |
| Aircraft | A320/M-SBDFGM3RWXY/LB1 |
Departure
| Time | N/A |
|---|---|
| Airport | Sheremetyevo International Airport (UUEE) |
Arrival
| Time | 2026-04-27 14:03 |
|---|---|
| Airport | Minsk National Airport (UMMS) |
| Time | Latitude | Longitude | Altitude | Speed | Heading |
|---|---|---|---|---|---|
| 2026-04-27 13:10 | 55.71956 | 34.77821 | 29978 ft | 451 kts | 266° |
| 2026-04-27 13:10 | 55.71687 | 34.72285 | 30235 ft | 452 kts | 266° |
| 2026-04-27 13:10 | 55.71345 | 34.67014 | 30461 ft | 454 kts | 264° |
| 2026-04-27 13:10 | 55.70810 | 34.61327 | 30515 ft | 456 kts | 261° |
| 2026-04-27 13:11 | 55.69284 | 34.50619 | 30526 ft | 458 kts | 255° |
| 2026-04-27 13:11 | 55.67152 | 34.39909 | 30529 ft | 458 kts | 252° |
| 2026-04-27 13:12 | 55.64944 | 34.29272 | 30530 ft | 458 kts | 251° |
| 2026-04-27 13:12 | 55.62748 | 34.18708 | 30528 ft | 458 kts | 251° |
| 2026-04-27 13:13 | 55.60523 | 34.08062 | 30528 ft | 459 kts | 251° |
| 2026-04-27 13:13 | 55.58299 | 33.97482 | 30530 ft | 458 kts | 251° |
| 2026-04-27 13:14 | 55.56063 | 33.86912 | 30529 ft | 458 kts | 251° |
| 2026-04-27 13:14 | 55.53817 | 33.76344 | 30530 ft | 458 kts | 251° |
| 2026-04-27 13:15 | 55.51626 | 33.65795 | 30530 ft | 458 kts | 254° |
| 2026-04-27 13:15 | 55.49895 | 33.54922 | 30532 ft | 457 kts | 258° |
| 2026-04-27 13:16 | 55.48327 | 33.44056 | 30564 ft | 458 kts | 258° |
| 2026-04-27 13:16 | 55.46740 | 33.33153 | 30639 ft | 457 kts | 257° |
| 2026-04-27 13:17 | 55.45151 | 33.22309 | 30712 ft | 457 kts | 257° |
| 2026-04-27 13:17 | 55.43544 | 33.11438 | 30759 ft | 456 kts | 257° |
| 2026-04-27 13:18 | 55.41937 | 33.00645 | 30785 ft | 454 kts | 256° |
| 2026-04-27 13:18 | 55.39441 | 32.90512 | 30651 ft | 448 kts | 243° |
| 2026-04-27 13:19 | 55.37945 | 32.85773 | 30062 ft | 445 kts | 242° |
| 2026-04-27 13:19 | 55.36411 | 32.80987 | 29266 ft | 444 kts | 242° |
| 2026-04-27 13:19 | 55.34885 | 32.76233 | 28444 ft | 444 kts | 242° |
| 2026-04-27 13:19 | 55.33369 | 32.71504 | 27530 ft | 445 kts | 242° |
| 2026-04-27 13:20 | 55.31875 | 32.66835 | 26563 ft | 448 kts | 242° |
| 2026-04-27 13:20 | 55.30342 | 32.62040 | 25601 ft | 449 kts | 242° |
| 2026-04-27 13:20 | 55.28817 | 32.57272 | 24951 ft | 443 kts | 242° |
| 2026-04-27 13:20 | 55.27311 | 32.52566 | 24341 ft | 437 kts | 242° |
| 2026-04-27 13:21 | 55.25836 | 32.47959 | 23693 ft | 433 kts | 243° |
| 2026-04-27 13:21 | 55.24366 | 32.43373 | 23040 ft | 429 kts | 243° |
| 2026-04-27 13:21 | 55.22923 | 32.38878 | 22405 ft | 425 kts | 243° |
| 2026-04-27 13:21 | 55.21467 | 32.34351 | 21764 ft | 422 kts | 242° |
| 2026-04-27 13:22 | 55.20029 | 32.29874 | 21123 ft | 418 kts | 242° |
| 2026-04-27 13:22 | 55.18614 | 32.25475 | 20487 ft | 414 kts | 242° |
| 2026-04-27 13:22 | 55.17221 | 32.21157 | 19862 ft | 411 kts | 242° |
| 2026-04-27 13:22 | 55.15805 | 32.16776 | 19224 ft | 407 kts | 242° |
| 2026-04-27 13:23 | 55.14420 | 32.12504 | 18599 ft | 404 kts | 242° |
| 2026-04-27 13:23 | 55.13033 | 32.08234 | 17974 ft | 400 kts | 242° |
| 2026-04-27 13:23 | 55.11679 | 32.04074 | 17355 ft | 397 kts | 242° |
| 2026-04-27 13:23 | 55.10311 | 31.99880 | 16733 ft | 394 kts | 242° |
| 2026-04-27 13:24 | 55.08962 | 31.95750 | 16118 ft | 390 kts | 241° |
| 2026-04-27 13:24 | 55.07621 | 31.91653 | 15505 ft | 387 kts | 241° |
| 2026-04-27 13:24 | 55.06266 | 31.87521 | 14885 ft | 384 kts | 241° |
| 2026-04-27 13:24 | 55.04939 | 31.83478 | 14274 ft | 381 kts | 241° |
| 2026-04-27 13:25 | 55.03636 | 31.79517 | 13661 ft | 378 kts | 241° |
| 2026-04-27 13:25 | 55.02329 | 31.75548 | 13101 ft | 374 kts | 241° |
| 2026-04-27 13:25 | 55.01025 | 31.71595 | 12833 ft | 372 kts | 241° |
| 2026-04-27 13:25 | 54.99735 | 31.67690 | 12809 ft | 373 kts | 241° |
| 2026-04-27 13:26 | 54.98411 | 31.63694 | 12805 ft | 373 kts | 241° |
| 2026-04-27 13:26 | 54.97106 | 31.59760 | 12804 ft | 373 kts | 240° |
| 2026-04-27 13:26 | 54.95790 | 31.55800 | 12803 ft | 372 kts | 240° |
| 2026-04-27 13:26 | 54.94477 | 31.51855 | 12803 ft | 372 kts | 240° |
| 2026-04-27 13:27 | 54.93160 | 31.47901 | 12802 ft | 372 kts | 240° |
| 2026-04-27 13:27 | 54.91866 | 31.44024 | 12802 ft | 372 kts | 240° |
| 2026-04-27 13:27 | 54.90551 | 31.40091 | 12802 ft | 373 kts | 240° |
| 2026-04-27 13:27 | 54.89238 | 31.36182 | 12802 ft | 373 kts | 240° |
| 2026-04-27 13:28 | 54.87931 | 31.32320 | 12802 ft | 373 kts | 239° |
| 2026-04-27 13:28 | 54.86616 | 31.28431 | 12802 ft | 373 kts | 239° |
| 2026-04-27 13:28 | 54.85312 | 31.24570 | 12802 ft | 373 kts | 239° |
| 2026-04-27 13:28 | 54.84004 | 31.20700 | 12802 ft | 373 kts | 239° |
| 2026-04-27 13:29 | 54.82673 | 31.16765 | 12802 ft | 373 kts | 239° |
| 2026-04-27 13:29 | 54.81366 | 31.12909 | 12802 ft | 373 kts | 239° |
| 2026-04-27 13:29 | 54.80052 | 31.09034 | 12801 ft | 373 kts | 240° |
| 2026-04-27 13:29 | 54.78744 | 31.05182 | 12801 ft | 375 kts | 240° |
| 2026-04-27 13:30 | 54.77412 | 31.01260 | 12800 ft | 376 kts | 240° |
| 2026-04-27 13:30 | 54.76087 | 30.97360 | 12800 ft | 378 kts | 240° |
| 2026-04-27 13:30 | 54.74755 | 30.93445 | 12800 ft | 380 kts | 240° |
| 2026-04-27 13:30 | 54.73412 | 30.89508 | 12801 ft | 380 kts | 240° |
| 2026-04-27 13:31 | 54.72064 | 30.85564 | 12801 ft | 380 kts | 240° |
| 2026-04-27 13:31 | 54.70729 | 30.81666 | 12801 ft | 380 kts | 240° |
| 2026-04-27 13:31 | 54.69358 | 30.77668 | 12801 ft | 380 kts | 240° |
| 2026-04-27 13:31 | 54.68013 | 30.73754 | 12801 ft | 380 kts | 240° |
| 2026-04-27 13:32 | 54.66656 | 30.69809 | 12801 ft | 380 kts | 240° |
| 2026-04-27 13:32 | 54.65316 | 30.65920 | 12801 ft | 380 kts | 240° |
| 2026-04-27 13:32 | 54.63948 | 30.61958 | 12801 ft | 380 kts | 240° |
| 2026-04-27 13:32 | 54.62602 | 30.58065 | 12801 ft | 380 kts | 240° |
| 2026-04-27 13:33 | 54.61245 | 30.54147 | 12801 ft | 380 kts | 240° |
| 2026-04-27 13:33 | 54.59877 | 30.50201 | 12801 ft | 380 kts | 240° |
| 2026-04-27 13:33 | 54.58519 | 30.46294 | 12801 ft | 380 kts | 240° |
| 2026-04-27 13:33 | 54.57165 | 30.42403 | 12801 ft | 380 kts | 240° |
| 2026-04-27 13:34 | 54.55797 | 30.38476 | 12801 ft | 380 kts | 240° |
| 2026-04-27 13:34 | 54.54441 | 30.34591 | 12802 ft | 380 kts | 239° |
| 2026-04-27 13:34 | 54.53078 | 30.30683 | 12805 ft | 381 kts | 239° |
| 2026-04-27 13:34 | 54.51689 | 30.26704 | 12809 ft | 381 kts | 239° |
| 2026-04-27 13:35 | 54.50329 | 30.22814 | 12816 ft | 381 kts | 239° |
| 2026-04-27 13:35 | 54.48955 | 30.18898 | 12825 ft | 381 kts | 239° |
| 2026-04-27 13:35 | 54.47581 | 30.14991 | 12836 ft | 381 kts | 239° |
| 2026-04-27 13:35 | 54.46211 | 30.11102 | 12848 ft | 381 kts | 239° |
| 2026-04-27 13:36 | 54.44829 | 30.07186 | 12862 ft | 381 kts | 239° |
| 2026-04-27 13:36 | 54.43441 | 30.03257 | 12874 ft | 381 kts | 239° |
| 2026-04-27 13:36 | 54.42059 | 29.99355 | 12885 ft | 381 kts | 239° |
| 2026-04-27 13:36 | 54.40683 | 29.95476 | 12893 ft | 381 kts | 239° |
| 2026-04-27 13:37 | 54.39314 | 29.91623 | 12900 ft | 381 kts | 239° |
| 2026-04-27 13:37 | 54.37926 | 29.87720 | 12904 ft | 381 kts | 239° |
| 2026-04-27 13:37 | 54.36560 | 29.83887 | 12907 ft | 381 kts | 239° |
| 2026-04-27 13:37 | 54.35166 | 29.79984 | 12909 ft | 381 kts | 239° |
| 2026-04-27 13:38 | 54.33777 | 29.76096 | 12910 ft | 381 kts | 239° |
| 2026-04-27 13:38 | 54.32394 | 29.72233 | 12911 ft | 381 kts | 239° |
| 2026-04-27 13:38 | 54.31010 | 29.68375 | 12911 ft | 381 kts | 239° |
| 2026-04-27 13:38 | 54.29635 | 29.64548 | 12911 ft | 381 kts | 239° |
| 2026-04-27 13:39 | 54.28239 | 29.60667 | 12912 ft | 381 kts | 239° |
| 2026-04-27 13:39 | 54.26857 | 29.56832 | 12912 ft | 381 kts | 239° |
| 2026-04-27 13:39 | 54.25465 | 29.52974 | 12912 ft | 381 kts | 239° |
| 2026-04-27 13:39 | 54.24064 | 29.49099 | 12912 ft | 381 kts | 239° |
| 2026-04-27 13:40 | 54.22666 | 29.45237 | 12912 ft | 381 kts | 239° |
| 2026-04-27 13:40 | 54.21271 | 29.41392 | 12909 ft | 380 kts | 239° |
| 2026-04-27 13:40 | 54.19889 | 29.37588 | 12641 ft | 374 kts | 239° |
| 2026-04-27 13:40 | 54.18521 | 29.33823 | 11976 ft | 374 kts | 238° |
| 2026-04-27 13:41 | 54.17157 | 29.30070 | 11452 ft | 371 kts | 239° |
| 2026-04-27 13:41 | 54.15804 | 29.26356 | 11226 ft | 371 kts | 239° |
| 2026-04-27 13:41 | 54.14437 | 29.22597 | 11216 ft | 372 kts | 239° |
| 2026-04-27 13:41 | 54.13161 | 29.18765 | 11215 ft | 372 kts | 243° |
| 2026-04-27 13:42 | 54.12033 | 29.14845 | 11215 ft | 372 kts | 246° |
| 2026-04-27 13:42 | 54.10951 | 29.10851 | 11187 ft | 369 kts | 246° |
| 2026-04-27 13:42 | 54.09872 | 29.06858 | 10728 ft | 365 kts | 246° |
| 2026-04-27 13:42 | 54.08805 | 29.02926 | 10122 ft | 363 kts | 246° |
| 2026-04-27 13:43 | 54.07767 | 28.99113 | 9896 ft | 349 kts | 246° |
| 2026-04-27 13:43 | 54.06766 | 28.95430 | 9676 ft | 336 kts | 246° |
| 2026-04-27 13:43 | 54.05793 | 28.91854 | 9462 ft | 324 kts | 246° |
| 2026-04-27 13:43 | 54.04859 | 28.88434 | 9257 ft | 312 kts | 246° |
| 2026-04-27 13:44 | 54.03960 | 28.85147 | 9057 ft | 301 kts | 246° |
| 2026-04-27 13:44 | 54.03090 | 28.81983 | 8867 ft | 291 kts | 246° |
| 2026-04-27 13:44 | 54.02238 | 28.78889 | 8677 ft | 281 kts | 245° |
| 2026-04-27 13:44 | 54.01409 | 28.75896 | 8490 ft | 271 kts | 245° |
| 2026-04-27 13:45 | 54.00614 | 28.73024 | 8179 ft | 267 kts | 245° |
| 2026-04-27 13:45 | 53.99826 | 28.70184 | 7816 ft | 265 kts | 245° |
| 2026-04-27 13:45 | 53.99040 | 28.67353 | 7475 ft | 262 kts | 246° |
| 2026-04-27 13:45 | 53.98264 | 28.64551 | 7094 ft | 261 kts | 246° |
| 2026-04-27 13:46 | 53.97489 | 28.61760 | 6716 ft | 260 kts | 246° |
| 2026-04-27 13:46 | 53.96724 | 28.59022 | 6364 ft | 258 kts | 246° |
| 2026-04-27 13:46 | 53.95948 | 28.56232 | 6054 ft | 254 kts | 246° |
| 2026-04-27 13:46 | 53.95196 | 28.53532 | 6006 ft | 255 kts | 246° |
| 2026-04-27 13:47 | 53.94436 | 28.50801 | 6000 ft | 255 kts | 246° |
| 2026-04-27 13:47 | 53.93683 | 28.48096 | 5995 ft | 256 kts | 246° |
| 2026-04-27 13:47 | 53.92847 | 28.45398 | 5982 ft | 255 kts | 240° |
| 2026-04-27 13:47 | 53.91819 | 28.42955 | 5700 ft | 253 kts | 233° |
| 2026-04-27 13:48 | 53.90697 | 28.40727 | 5503 ft | 245 kts | 232° |
| 2026-04-27 13:48 | 53.89607 | 28.38628 | 5494 ft | 229 kts | 232° |
| 2026-04-27 13:48 | 53.88476 | 28.36765 | 5453 ft | 226 kts | 214° |
| 2026-04-27 13:48 | 53.86960 | 28.36032 | 5162 ft | 235 kts | 182° |
| 2026-04-27 13:49 | 53.85405 | 28.36847 | 4788 ft | 245 kts | 148° |
| 2026-04-27 13:49 | 53.84085 | 28.38685 | 4467 ft | 246 kts | 141° |
| 2026-04-27 13:49 | 53.82813 | 28.40654 | 4114 ft | 247 kts | 140° |
| 2026-04-27 13:49 | 53.81525 | 28.42626 | 4017 ft | 246 kts | 141° |
| 2026-04-27 13:50 | 53.80253 | 28.44544 | 4010 ft | 247 kts | 141° |
| 2026-04-27 13:50 | 53.78960 | 28.46463 | 4000 ft | 247 kts | 142° |
| 2026-04-27 13:50 | 53.77662 | 28.48375 | 3999 ft | 247 kts | 142° |
| 2026-04-27 13:50 | 53.76331 | 28.50332 | 3991 ft | 247 kts | 142° |
| 2026-04-27 13:51 | 53.75033 | 28.52239 | 3997 ft | 249 kts | 142° |
| 2026-04-27 13:51 | 53.73716 | 28.54173 | 4000 ft | 247 kts | 142° |
| 2026-04-27 13:51 | 53.72417 | 28.56075 | 3993 ft | 248 kts | 144° |
| 2026-04-27 13:51 | 53.70954 | 28.57403 | 3965 ft | 238 kts | 176° |
| 2026-04-27 13:52 | 53.69388 | 28.57017 | 3994 ft | 225 kts | 214° |
| 2026-04-27 13:52 | 53.68241 | 28.55317 | 4022 ft | 219 kts | 234° |
| 2026-04-27 13:52 | 53.67284 | 28.53348 | 4006 ft | 218 kts | 235° |
| 2026-04-27 13:52 | 53.66311 | 28.51363 | 4002 ft | 218 kts | 235° |
| 2026-04-27 13:53 | 53.64342 | 28.47464 | 3993 ft | 220 kts | 233° |
| 2026-04-27 13:53 | 53.63379 | 28.45494 | 3984 ft | 213 kts | 244° |
| 2026-04-27 13:53 | 53.63062 | 28.43236 | 3969 ft | 190 kts | 281° |
| 2026-04-27 13:54 | 53.63577 | 28.41303 | 4045 ft | 176 kts | 310° |
| 2026-04-27 13:54 | 53.64376 | 28.39891 | 4019 ft | 159 kts | 305° |
| 2026-04-27 13:54 | 53.64951 | 28.38414 | 4031 ft | 145 kts | 302° |
| 2026-04-27 13:54 | 53.65536 | 28.37067 | 4007 ft | 142 kts | 308° |
| 2026-04-27 13:55 | 53.66196 | 28.35822 | 3997 ft | 141 kts | 311° |
| 2026-04-27 13:55 | 53.66919 | 28.34698 | 3995 ft | 141 kts | 315° |
| 2026-04-27 13:55 | 53.67663 | 28.33635 | 3998 ft | 140 kts | 315° |
| 2026-04-27 13:55 | 53.68408 | 28.32567 | 3996 ft | 140 kts | 315° |
| 2026-04-27 13:56 | 53.69156 | 28.31481 | 3997 ft | 141 kts | 315° |
| 2026-04-27 13:56 | 53.69888 | 28.30409 | 3994 ft | 141 kts | 315° |
| 2026-04-27 13:56 | 53.70629 | 28.29315 | 3997 ft | 141 kts | 315° |
| 2026-04-27 13:56 | 53.71363 | 28.28227 | 3995 ft | 140 kts | 314° |
| 2026-04-27 13:57 | 53.72092 | 28.27135 | 4001 ft | 140 kts | 315° |
| 2026-04-27 13:57 | 53.72828 | 28.26036 | 3995 ft | 140 kts | 314° |
| 2026-04-27 13:57 | 53.73557 | 28.24946 | 3997 ft | 140 kts | 314° |
| 2026-04-27 13:57 | 53.74291 | 28.23845 | 3963 ft | 141 kts | 315° |
| 2026-04-27 13:58 | 53.75024 | 28.22751 | 3790 ft | 140 kts | 315° |
| 2026-04-27 13:58 | 53.75759 | 28.21654 | 3609 ft | 140 kts | 314° |
| 2026-04-27 13:58 | 53.75903 | 28.21439 | 3575 ft | 140 kts | 315° |
| 2026-04-27 13:58 | 53.76634 | 28.20348 | 3388 ft | 139 kts | 315° |
| 2026-04-27 13:59 | 53.77356 | 28.19270 | 3203 ft | 139 kts | 314° |
| 2026-04-27 13:59 | 53.78083 | 28.18185 | 3009 ft | 138 kts | 315° |
| 2026-04-27 13:59 | 53.78804 | 28.17110 | 2840 ft | 138 kts | 315° |
| 2026-04-27 13:59 | 53.79517 | 28.16049 | 2652 ft | 137 kts | 316° |
| 2026-04-27 14:00 | 53.80232 | 28.14986 | 2472 ft | 137 kts | 316° |
| 2026-04-27 14:00 | 53.80954 | 28.13911 | 2287 ft | 137 kts | 315° |
| 2026-04-27 14:00 | 53.81666 | 28.12853 | 2100 ft | 136 kts | 316° |
| 2026-04-27 14:00 | 53.82374 | 28.11800 | 1928 ft | 136 kts | 315° |
| 2026-04-27 14:01 | 53.83083 | 28.10744 | 1744 ft | 135 kts | 317° |
| 2026-04-27 14:01 | 53.83794 | 28.09686 | 1556 ft | 135 kts | 317° |
| 2026-04-27 14:01 | 53.84497 | 28.08645 | 1383 ft | 134 kts | 316° |
| 2026-04-27 14:01 | 53.85207 | 28.07611 | 1208 ft | 134 kts | 317° |
| 2026-04-27 14:02 | 53.85909 | 28.06576 | 1006 ft | 132 kts | 317° |
| 2026-04-27 14:02 | 53.86586 | 28.05565 | 863 ft | 127 kts | 316° |
| 2026-04-27 14:02 | 53.87206 | 28.04629 | 691 ft | 111 kts | 319° |
| 2026-04-27 14:02 | 53.87682 | 28.03920 | 690 ft | 66 kts | 319° |
| 2026-04-27 14:03 | 53.87910 | 28.03650 | 690 ft | 17 kts | 284° |
| 2026-04-27 14:03 | 53.87945 | 28.03567 | 690 ft | 10 kts | 309° |
| 2026-04-27 14:03 | 53.88009 | 28.03448 | 690 ft | 20 kts | 311° |
| 2026-04-27 14:03 | 53.88106 | 28.03280 | 690 ft | 21 kts | 319° |
| 2026-04-27 14:04 | 53.88213 | 28.03122 | 690 ft | 15 kts | 319° |
| 2026-04-27 14:04 | 53.88314 | 28.03155 | 690 ft | 19 kts | 48° |
| 2026-04-27 14:04 | 53.88405 | 28.03328 | 690 ft | 17 kts | 48° |
| 2026-04-27 14:04 | 53.88497 | 28.03485 | 690 ft | 12 kts | 8° |
| 2026-04-27 14:05 | 53.88586 | 28.03466 | 690 ft | 12 kts | 38° |
| 2026-04-27 14:05 | 53.88643 | 28.03560 | 690 ft | 9 kts | 31° |
| 2026-04-27 14:05 | 53.88714 | 28.03503 | 690 ft | 14 kts | 319° |
| 2026-04-27 14:05 | 53.88785 | 28.03385 | 690 ft | 13 kts | 300° |
| 2026-04-27 14:06 | 53.88858 | 28.03327 | 690 ft | 0 kts | 359° |